Sandgate, Vermont
Current Conditions -  °F | °C
As of 8:54 PM on Saturday 25 Oct 2014 (Local Time) from KDDH Reporting Station
Overcast Overcast  
Wind Chill: 55°   Ceiling: 6000
Heat Index: 55°   Visibility: 10mi
Dew Point: 45°   Wind: 6mph
Humidity: 69%   Direction: 240°WSW
Pressure: 29.54"   Gusts: NA
Location:  43.1041°N, 73.154°W
Report Text: KDDH 260054Z AUTO 24005KT 10SM SCT047 OVC060 13/07 A2954 RMK AO2 RAB28E43 SLP003 P0001 T01280072
Loading
Personal Weather Stations






























Interactive Weather Map
Tropical Storm Tracking
New forecast layout! Learn more

10-Day Weather Forecast

Advertisements
Track Severe Weather on mobile